Time;durP1;ratioP1;P1;durP2;ratioP2;P2;SDS_P1;SDS_P2;PMS_P1;PMS_P2;Temp;Humidity;BMP_temperature;BMP_pressure;BME280_temperature;BME280_humidity;BME280_pressure;Samples;Min_cycle;Max_cycle;Signal;HPM_P1;HPM_P2
2022/09/04 00:01:53;;;;;;;0.50;0.30;;;17.00;99.90;;;;;;5052809;28;20523;-76
2022/09/04 00:04:30;;;;;;;0.60;0.57;;;16.90;99.90;;;;;;5052077;28;20944;-76
2022/09/04 00:07:07;;;;;;;0.50;0.30;;;17.00;99.90;;;;;;5052411;28;20524;-76
2022/09/04 00:09:44;;;;;;;0.50;0.30;;;17.00;99.90;;;;;;5052352;28;20548;-76
2022/09/04 00:12:11;;;;;;;0.50;0.40;;;16.90;99.90;;;;;;5052759;28;20920;-76
2022/09/04 00:14:43;;;;;;;0.50;0.30;;;16.90;99.90;;;;;;5051989;28;20491;-76
2022/09/04 00:17:16;;;;;;;0.50;0.40;;;16.90;99.90;;;;;;5052779;28;20428;-76
2022/09/04 00:19:49;;;;;;;0.50;0.30;;;16.80;99.90;;;;;;5051897;28;20575;-76
2022/09/04 00:22:26;;;;;;;0.50;0.40;;;16.80;99.90;;;;;;5052377;28;20516;-76
2022/09/04 00:25:00;;;;;;;0.70;0.70;;;16.80;99.90;;;;;;5051702;28;20443;-77
2022/09/04 00:27:33;;;;;;;0.50;0.40;;;16.80;99.90;;;;;;5051853;28;20472;-76
2022/09/04 00:30:06;;;;;;;0.50;0.37;;;16.80;99.90;;;;;;5051973;28;20492;-76
2022/09/04 00:32:41;;;;;;;0.50;0.40;;;16.80;99.90;;;;;;5051444;28;20479;-76
2022/09/04 00:35:14;;;;;;;0.50;0.30;;;16.80;99.90;;;;;;5051441;28;20475;-76
2022/09/04 00:37:45;;;;;;;0.50;0.40;;;16.80;99.90;;;;;;5052272;28;20448;-75
2022/09/04 00:40:24;;;;;;;0.50;0.30;;;16.90;99.90;;;;;;5051520;28;20477;-76
2022/09/04 00:43:31;;;;;;;0.50;0.40;;;16.90;99.90;;;;;;5051820;28;20436;-76
2022/09/04 00:46:41;;;;;;;0.50;0.30;;;16.80;99.90;;;;;;5051427;28;20437;-75
2022/09/04 00:49:44;;;;;;;0.50;0.37;;;16.80;99.90;;;;;;5051744;28;20453;-76
2022/09/04 00:52:25;;;;;;;0.50;0.30;;;16.80;99.90;;;;;;5041650;28;20564;-77
2022/09/04 00:55:12;;;;;;;0.50;0.30;;;16.80;99.90;;;;;;5051274;28;20451;-76
2022/09/04 00:58:30;;;;;;;0.50;0.40;;;16.70;99.90;;;;;;5051516;28;20461;-77
2022/09/04 01:00:59;;;;;;;0.50;0.40;;;16.60;99.90;;;;;;4983244;28;20496;-76
2022/09/04 01:04:12;;;;;;;0.50;0.30;;;16.60;99.90;;;;;;5046512;28;20551;-76
2022/09/04 01:06:52;;;;;;;0.60;0.60;;;16.50;99.90;;;;;;5051785;28;20519;-76
2022/09/04 01:09:51;;;;;;;0.50;0.40;;;16.50;99.90;;;;;;5051286;28;20551;-75
2022/09/04 01:12:29;;;;;;;0.50;0.30;;;16.50;99.90;;;;;;4998507;28;20489;-77
2022/09/04 01:15:13;;;;;;;0.50;0.30;;;16.50;99.90;;;;;;5050887;28;20507;-76
2022/09/04 01:17:51;;;;;;;0.50;0.40;;;16.40;99.90;;;;;;5051378;28;20421;-76
2022/09/04 01:20:27;;;;;;;0.60;0.53;;;16.40;99.90;;;;;;5051090;28;21058;-76
2022/09/04 01:23:17;;;;;;;0.50;0.40;;;16.40;99.90;;;;;;5051474;28;20433;-76
2022/09/04 01:26:07;;;;;;;0.50;0.33;;;16.30;99.90;;;;;;5051044;28;20544;-74
2022/09/04 01:28:42;;;;;;;0.50;0.30;;;16.40;99.90;;;;;;5051659;28;20798;-76
2022/09/04 01:31:20;;;;;;;0.50;0.30;;;16.40;99.90;;;;;;5050230;28;20846;-77
2022/09/04 01:33:57;;;;;;;0.50;0.40;;;16.40;99.90;;;;;;5051145;28;20508;-73
2022/09/04 01:36:32;;;;;;;0.50;0.30;;;16.30;99.90;;;;;;5051264;28;20471;-76
2022/09/04 01:39:01;;;;;;;0.50;0.40;;;16.30;99.90;;;;;;5050528;28;21057;-76
2022/09/04 01:41:33;;;;;;;0.50;0.30;;;16.20;99.90;;;;;;5051499;28;20508;-76
2022/09/04 01:44:00;;;;;;;0.50;0.30;;;16.20;99.90;;;;;;5052056;28;20457;-76
2022/09/04 01:46:40;;;;;;;0.50;0.40;;;16.20;99.90;;;;;;5051196;28;20472;-76
2022/09/04 01:49:15;;;;;;;0.50;0.40;;;16.10;99.90;;;;;;5050913;28;20532;-76
2022/09/04 01:51:48;;;;;;;0.50;0.40;;;16.00;99.90;;;;;;5051098;28;20417;-76
2022/09/04 01:54:34;;;;;;;0.50;0.40;;;15.90;99.90;;;;;;5050955;28;20429;-76
2022/09/04 01:57:14;;;;;;;0.50;0.30;;;15.90;99.90;;;;;;5050851;28;20442;-75
2022/09/04 01:59:53;;;;;;;0.50;0.30;;;15.90;99.90;;;;;;5051513;28;20846;-73
2022/09/04 02:02:26;;;;;;;0.50;0.30;;;15.90;99.90;;;;;;5050852;28;20429;-76
2022/09/04 02:05:02;;;;;;;0.50;0.30;;;16.00;99.90;;;;;;5050727;28;20544;-76
2022/09/04 02:07:36;;;;;;;0.50;0.40;;;16.10;99.90;;;;;;5050646;28;20441;-76
2022/09/04 02:10:12;;;;;;;0.50;0.30;;;16.00;99.90;;;;;;5052637;28;20540;-76
2022/09/04 02:12:49;;;;;;;0.60;0.50;;;15.90;99.90;;;;;;5054911;28;20504;-76
2022/09/04 02:15:29;;;;;;;0.50;0.40;;;15.90;99.90;;;;;;5054673;28;20965;-76
2022/09/04 02:18:06;;;;;;;0.50;0.40;;;15.90;99.90;;;;;;5054147;28;20441;-76
2022/09/04 02:20:33;;;;;;;0.50;0.30;;;15.90;99.90;;;;;;5054789;28;20464;-76
2022/09/04 02:23:18;;;;;;;0.50;0.50;;;15.90;99.90;;;;;;5054352;28;20473;-76
2022/09/04 02:25:50;;;;;;;0.50;0.30;;;15.90;99.90;;;;;;5054800;28;20473;-76
2022/09/04 02:28:33;;;;;;;0.50;0.40;;;15.90;99.90;;;;;;5054757;28;20441;-76
2022/09/04 02:31:07;;;;;;;0.50;0.40;;;15.90;99.90;;;;;;5053949;28;20468;-76
2022/09/04 02:33:42;;;;;;;0.50;0.40;;;15.90;99.90;;;;;;5054965;28;20497;-76
2022/09/04 02:36:15;;;;;;;0.50;0.40;;;15.80;99.90;;;;;;5054324;28;20483;-76
2022/09/04 02:38:50;;;;;;;0.50;0.40;;;15.80;99.90;;;;;;5054323;28;21029;-76
2022/09/04 02:41:25;;;;;;;0.50;0.40;;;15.80;99.90;;;;;;5054052;28;20448;-77
2022/09/04 02:44:08;;;;;;;0.50;0.30;;;15.80;99.90;;;;;;5053916;28;20448;-73
2022/09/04 02:46:49;;;;;;;0.50;0.40;;;15.80;99.90;;;;;;5054439;28;20476;-76
2022/09/04 02:49:29;;;;;;;0.50;0.40;;;15.80;99.90;;;;;;5054547;28;20540;-76
2022/09/04 02:52:15;;;;;;;0.50;0.40;;;15.80;99.90;;;;;;5054612;28;20503;-77
2022/09/04 02:54:57;;;;;;;0.50;0.40;;;15.80;99.90;;;;;;5053897;28;20479;-76
2022/09/04 02:57:38;;;;;;;0.50;0.40;;;15.80;99.90;;;;;;5054368;28;20781;-75
2022/09/04 03:00:14;;;;;;;0.50;0.40;;;15.70;99.90;;;;;;5054456;28;20460;-76
2022/09/04 03:02:48;;;;;;;0.50;0.40;;;15.70;99.90;;;;;;5053809;28;20444;-76
2022/09/04 03:05:19;;;;;;;0.50;0.40;;;15.70;99.90;;;;;;5053425;28;20441;-76
2022/09/04 03:07:54;;;;;;;0.50;0.40;;;15.70;99.90;;;;;;5053714;28;20472;-76
2022/09/04 03:10:27;;;;;;;0.50;0.40;;;15.60;99.90;;;;;;5053397;28;20551;-76
2022/09/04 03:12:59;;;;;;;0.50;0.30;;;15.70;99.90;;;;;;5053397;28;20551;-76
2022/09/04 03:15:35;;;;;;;0.50;0.40;;;15.60;99.90;;;;;;5053304;28;20531;-75
2022/09/04 03:18:07;;;;;;;0.50;0.40;;;15.60;99.90;;;;;;5053531;28;20453;-77
2022/09/04 03:20:41;;;;;;;0.50;0.40;;;15.60;99.90;;;;;;5053371;28;20483;-76
2022/09/04 03:23:15;;;;;;;0.50;0.30;;;15.50;99.90;;;;;;5053721;28;20505;-76
2022/09/04 03:26:03;;;;;;;0.50;0.40;;;15.50;99.90;;;;;;5052983;28;20515;-76
2022/09/04 03:28:41;;;;;;;0.50;0.40;;;15.40;99.90;;;;;;5052984;28;20512;-76
2022/09/04 03:31:24;;;;;;;0.50;0.40;;;15.40;99.90;;;;;;5052995;28;20449;-76
2022/09/04 03:33:55;;;;;;;0.67;0.67;;;15.40;99.90;;;;;;5053130;28;20461;-75
2022/09/04 03:36:33;;;;;;;0.60;0.50;;;15.40;99.90;;;;;;5053339;28;20524;-76
2022/09/04 03:39:08;;;;;;;0.50;0.40;;;15.40;99.90;;;;;;5053010;28;20568;-76
2022/09/04 03:41:44;;;;;;;0.50;0.40;;;15.40;99.90;;;;;;5053167;28;20516;-76
2022/09/04 03:44:22;;;;;;;0.50;0.40;;;15.40;99.90;;;;;;5052435;28;20531;-76
2022/09/04 03:47:01;;;;;;;0.50;0.30;;;15.40;99.90;;;;;;5052981;28;20449;-76
2022/09/04 03:49:42;;;;;;;0.50;0.40;;;15.40;99.90;;;;;;5052937;28;20460;-76
2022/09/04 03:52:16;;;;;;;0.50;0.40;;;15.40;99.90;;;;;;5052629;28;20527;-76
2022/09/04 03:54:58;;;;;;;0.50;0.30;;;15.30;99.90;;;;;;5052588;28;20462;-75
2022/09/04 03:58:02;;;;;;;0.50;0.40;;;15.30;99.90;;;;;;5052774;28;20440;-77
2022/09/04 04:00:37;;;;;;;0.50;0.40;;;15.20;99.90;;;;;;5049584;28;20555;-76
2022/09/04 04:03:27;;;;;;;0.50;0.40;;;15.20;99.90;;;;;;5052850;28;20492;-75
2022/09/04 04:06:06;;;;;;;0.50;0.40;;;15.10;99.90;;;;;;5045744;28;20481;-75
2022/09/04 04:08:55;;;;;;;0.50;0.40;;;15.10;99.90;;;;;;5052574;28;20520;-76
2022/09/04 04:11:38;;;;;;;0.50;0.37;;;15.10;99.90;;;;;;5052871;28;20425;-76
2022/09/04 04:14:36;;;;;;;0.50;0.30;;;15.10;99.90;;;;;;5052252;28;20572;-76
2022/09/04 04:17:17;;;;;;;0.50;0.40;;;15.10;99.90;;;;;;5023272;28;20441;-76
2022/09/04 04:20:02;;;;;;;0.50;0.40;;;15.10;99.90;;;;;;5052108;28;20550;-74
2022/09/04 04:22:51;;;;;;;0.50;0.40;;;15.10;99.90;;;;;;5052048;28;20433;-76
2022/09/04 04:25:33;;;;;;;0.50;0.40;;;15.00;99.90;;;;;;5052202;28;20457;-76
2022/09/04 04:28:18;;;;;;;0.50;0.40;;;15.00;99.90;;;;;;5052385;28;20468;-76
2022/09/04 04:30:51;;;;;;;0.50;0.40;;;15.00;99.90;;;;;;5051546;28;20456;-72
2022/09/04 04:33:32;;;;;;;0.50;0.33;;;15.10;99.90;;;;;;5051273;28;20500;-76
2022/09/04 04:36:11;;;;;;;0.50;0.40;;;15.10;99.90;;;;;;5052257;28;20798;-77
2022/09/04 04:38:54;;;;;;;0.50;0.40;;;15.00;99.90;;;;;;5051930;28;20827;-76
2022/09/04 04:42:02;;;;;;;0.50;0.40;;;15.00;99.90;;;;;;5052241;28;20441;-75
2022/09/04 04:45:48;;;;;;;0.50;0.40;;;15.00;99.90;;;;;;5050772;28;20433;-76
2022/09/04 04:47:33;;;;;;;0.50;0.40;;;15.00;99.90;;;;;;5051675;28;20433;-76
2022/09/04 04:50:08;;;;;;;0.50;0.30;;;15.00;99.90;;;;;;5051894;28;20453;-77
2022/09/04 04:52:52;;;;;;;0.50;0.40;;;15.00;99.90;;;;;;5051802;28;20420;-77
2022/09/04 04:55:32;;;;;;;0.50;0.40;;;15.00;99.90;;;;;;5051158;28;20437;-77
2022/09/04 04:58:24;;;;;;;0.60;0.60;;;15.00;99.90;;;;;;5051546;28;20480;-77
2022/09/04 05:01:04;;;;;;;0.50;0.40;;;15.00;99.90;;;;;;5051821;28;20461;-77
2022/09/04 05:03:43;;;;;;;0.50;0.40;;;15.10;99.90;;;;;;5051406;28;20433;-76
2022/09/04 05:06:14;;;;;;;0.50;0.30;;;15.10;99.90;;;;;;5051016;28;20518;-77
2022/09/04 05:08:49;;;;;;;0.50;0.40;;;15.10;99.90;;;;;;5051552;28;20857;-75
2022/09/04 05:11:26;;;;;;;0.50;0.40;;;15.10;99.90;;;;;;5051546;28;21029;-76
2022/09/04 05:14:02;;;;;;;0.50;0.37;;;15.10;99.90;;;;;;5051242;28;20474;-75
2022/09/04 05:16:41;;;;;;;0.50;0.40;;;15.20;99.90;;;;;;5051166;28;20519;-76
2022/09/04 05:19:15;;;;;;;0.50;0.40;;;15.20;99.90;;;;;;5051200;28;20465;-76
2022/09/04 05:21:50;;;;;;;0.50;0.40;;;15.30;99.90;;;;;;5051551;28;20440;-77
2022/09/04 05:24:28;;;;;;;0.50;0.40;;;15.30;99.90;;;;;;5050662;28;20452;-75
2022/09/04 05:27:00;;;;;;;0.50;0.40;;;15.40;99.90;;;;;;5051088;28;20425;-76
2022/09/04 05:29:39;;;;;;;0.50;0.40;;;15.50;99.90;;;;;;5051077;28;21057;-75
2022/09/04 05:32:18;;;;;;;0.50;0.40;;;15.60;99.90;;;;;;5050424;28;20432;-76
2022/09/04 05:35:02;;;;;;;0.50;0.33;;;15.70;99.90;;;;;;5050738;28;21029;-76
2022/09/04 05:37:37;;;;;;;0.50;0.40;;;15.80;99.90;;;;;;5051003;28;20425;-76
2022/09/04 05:40:19;;;;;;;0.50;0.30;;;15.90;99.90;;;;;;5050491;28;20471;-77
2022/09/04 05:42:58;;;;;;;0.50;0.30;;;16.00;99.90;;;;;;5051447;28;20527;-73
2022/09/04 05:45:37;;;;;;;0.50;0.40;;;16.10;99.90;;;;;;5053351;28;20881;-77
2022/09/04 05:48:14;;;;;;;0.50;0.40;;;16.30;99.90;;;;;;5055067;28;20508;-77
2022/09/04 05:51:04;;;;;;;0.50;0.40;;;16.40;99.90;;;;;;5055179;28;21028;-76
2022/09/04 05:53:57;;;;;;;0.50;0.40;;;16.50;99.90;;;;;;5054847;28;20512;-76
2022/09/04 05:56:51;;;;;;;0.50;0.40;;;16.60;99.90;;;;;;5055447;28;20527;-77
2022/09/04 05:59:55;;;;;;;0.50;0.40;;;17.20;99.90;;;;;;5054935;28;20894;-77
2022/09/04 06:02:38;;;;;;;0.50;0.40;;;18.40;99.90;;;;;;5018696;28;21040;-77
2022/09/04 06:05:32;;;;;;;0.50;0.30;;;19.90;99.90;;;;;;5054654;28;20536;-76
2022/09/04 06:08:07;;;;;;;0.50;0.30;;;21.30;99.90;;;;;;5054992;28;20484;-77
2022/09/04 06:10:46;;;;;;;0.50;0.30;;;22.30;99.90;;;;;;5054702;28;20606;-77
2022/09/04 06:13:43;;;;;;;0.50;0.30;;;23.40;99.90;;;;;;5054799;28;20426;-77
2022/09/04 06:16:31;;;;;;;0.50;0.30;;;24.60;99.90;;;;;;5054955;28;20471;-77
2022/09/04 06:19:16;;;;;;;0.50;0.30;;;25.50;99.90;;;;;;5054566;28;20501;-77
2022/09/04 06:22:15;;;;;;;0.50;0.30;;;26.30;99.90;;;;;;5054521;28;20516;-76
2022/09/04 06:25:08;;;;;;;0.50;0.37;;;27.00;99.90;;;;;;5054051;28;20886;-78
2022/09/04 06:28:06;;;;;;;0.50;0.30;;;27.40;99.90;;;;;;5054172;28;20429;-78
2022/09/04 06:30:41;;;;;;;0.50;0.30;;;28.00;99.90;;;;;;5038713;28;20476;-78
2022/09/04 06:33:23;;;;;;;0.50;0.30;;;28.40;99.90;;;;;;5053660;28;20421;-78
2022/09/04 06:36:02;;;;;;;0.50;0.30;;;28.40;99.90;;;;;;5053957;28;20500;-78
2022/09/04 06:38:40;;;;;;;0.50;0.30;;;29.00;98.40;;;;;;5054541;28;20520;-77
2022/09/04 06:41:25;;;;;;;0.50;0.30;;;29.40;97.50;;;;;;5054384;28;20413;-78
2022/09/04 06:44:00;;;;;;;0.50;0.30;;;29.90;94.90;;;;;;5053796;28;20421;-78
2022/09/04 06:46:38;;;;;;;0.50;0.30;;;30.80;91.30;;;;;;5054118;28;20490;-78
2022/09/04 06:49:12;;;;;;;0.50;0.30;;;31.30;87.90;;;;;;5053990;28;20461;-78
2022/09/04 06:51:53;;;;;;;1.23;0.63;;;31.70;86.90;;;;;;5054286;28;20422;-78
2022/09/04 06:54:35;;;;;;;0.50;0.30;;;32.10;83.50;;;;;;5053171;28;20579;-78
2022/09/04 06:57:18;;;;;;;0.50;0.30;;;32.80;80.50;;;;;;5053861;28;20783;-77
2022/09/04 07:00:02;;;;;;;0.50;0.30;;;33.30;74.50;;;;;;5053573;28;21021;-78
2022/09/04 07:02:58;;;;;;;0.50;0.30;;;33.70;73.90;;;;;;5054140;28;20848;-78
2022/09/04 07:05:30;;;;;;;0.50;0.40;;;34.10;71.70;;;;;;5053709;28;20446;-79
2022/09/04 07:08:06;;;;;;;0.50;0.30;;;33.90;69.30;;;;;;5053201;28;21006;-77
2022/09/04 07:10:35;;;;;;;0.50;0.30;;;33.70;70.60;;;;;;5053686;28;20544;-79
2022/09/04 07:13:34;;;;;;;0.50;0.30;;;33.50;71.30;;;;;;5053293;28;20481;-78
2022/09/04 07:16:34;;;;;;;0.50;0.30;;;34.10;69.10;;;;;;5053353;28;20445;-78
2022/09/04 07:19:24;;;;;;;0.50;0.30;;;34.10;67.50;;;;;;5016943;28;20492;-78
2022/09/04 07:22:06;;;;;;;0.50;0.40;;;34.20;68.20;;;;;;5053665;28;20519;-78
2022/09/04 07:24:56;;;;;;;0.50;0.30;;;34.80;65.70;;;;;;5053238;28;20508;-78
2022/09/04 07:27:35;;;;;;;0.50;0.30;;;35.30;64.80;;;;;;5053161;28;20426;-78
2022/09/04 07:30:05;;;;;;;0.50;0.30;;;34.80;63.20;;;;;;5052872;28;20492;-77
2022/09/04 07:32:40;;;;;;;0.50;0.37;;;33.80;66.30;;;;;;5052965;28;20814;-78
2022/09/04 07:35:15;;;;;;;0.50;0.30;;;33.70;66.60;;;;;;5053104;28;20550;-78
2022/09/04 07:37:57;;;;;;;0.50;0.30;;;34.60;66.20;;;;;;5053523;28;20453;-77
2022/09/04 07:40:30;;;;;;;0.50;0.30;;;35.10;64.20;;;;;;5052362;28;20476;-78
2022/09/04 07:43:09;;;;;;;0.73;0.73;;;35.70;62.70;;;;;;5053906;28;20440;-74
2022/09/04 07:45:49;;;;;;;0.50;0.30;;;36.30;60.50;;;;;;5052566;28;20532;-78
2022/09/04 07:48:23;;;;;;;0.50;0.30;;;35.30;61.00;;;;;;5053002;28;20510;-78
2022/09/04 07:51:06;;;;;;;0.50;0.30;;;35.10;62.30;;;;;;5052397;28;20519;-77
2022/09/04 07:54:03;;;;;;;0.50;0.30;;;35.30;62.00;;;;;;5053056;28;20441;-78
2022/09/04 07:56:41;;;;;;;0.50;0.30;;;35.90;60.40;;;;;;5052774;28;20428;-77
2022/09/04 07:59:47;;;;;;;0.50;0.30;;;36.10;59.90;;;;;;5052660;28;20468;-78
2022/09/04 08:02:28;;;;;;;0.50;0.30;;;34.70;62.00;;;;;;5052558;28;20521;-77
2022/09/04 08:05:31;;;;;;;0.50;0.40;;;35.10;61.80;;;;;;5052229;28;20520;-77
2022/09/04 08:08:28;;;;;;;0.50;0.30;;;34.80;61.80;;;;;;5046818;28;20532;-77
2022/09/04 08:11:11;;;;;;;0.40;0.30;;;35.30;62.80;;;;;;5052240;28;20551;-78
2022/09/04 08:13:52;;;;;;;0.50;0.30;;;36.10;59.90;;;;;;5053183;28;20418;-78
2022/09/04 08:16:28;;;;;;;0.50;0.30;;;37.00;59.30;;;;;;5053044;28;20445;-78
2022/09/04 08:19:09;;;;;;;0.50;0.30;;;36.70;58.60;;;;;;5052873;28;20456;-78
2022/09/04 08:21:39;;;;;;;0.40;0.30;;;36.30;59.40;;;;;;5052815;28;20524;-76
2022/09/04 08:24:48;;;;;;;0.50;0.30;;;36.70;59.00;;;;;;5053146;28;20524;-76
2022/09/04 08:27:30;;;;;;;0.50;0.30;;;37.30;58.50;;;;;;5023367;28;20449;-78
2022/09/04 08:30:04;;;;;;;0.40;0.30;;;37.60;57.00;;;;;;5052786;28;20523;-77
2022/09/04 08:33:05;;;;;;;0.40;0.30;;;38.00;56.90;;;;;;5052521;28;20528;-77
2022/09/04 08:35:34;;;;;;;0.47;0.40;;;38.20;56.30;;;;;;5052205;28;20519;-76
2022/09/04 08:38:25;;;;;;;0.40;0.30;;;38.20;55.90;;;;;;5052517;28;20551;-77
2022/09/04 08:41:37;;;;;;;0.47;0.30;;;37.20;57.00;;;;;;5052316;28;20514;-77
2022/09/04 08:44:37;;;;;;;0.50;0.30;;;36.90;57.60;;;;;;5051791;28;20523;-78
2022/09/04 08:47:34;;;;;;;0.60;0.53;;;36.60;58.00;;;;;;5051669;28;20951;-78
2022/09/04 08:50:22;;;;;;;0.43;0.30;;;36.80;57.30;;;;;;5051919;28;20473;-77
2022/09/04 08:53:39;;;;;;;0.50;0.40;;;36.50;57.90;;;;;;5051800;28;20484;-75
2022/09/04 08:56:19;;;;;;;0.43;0.30;;;36.70;58.30;;;;;;5051051;28;20571;-78
2022/09/04 08:59:18;;;;;;;0.40;0.30;;;37.80;57.30;;;;;;5051368;28;20441;-78
2022/09/04 09:02:13;;;;;;;0.40;0.30;;;38.20;56.40;;;;;;5051749;28;20552;-77
2022/09/04 09:05:30;;;;;;;0.40;0.30;;;38.20;55.50;;;;;;5051420;28;20846;-78
2022/09/04 09:08:13;;;;;;;0.40;0.30;;;38.30;56.00;;;;;;5051660;28;20500;-78
2022/09/04 09:11:22;;;;;;;0.40;0.30;;;39.50;55.30;;;;;;5051144;28;20453;-78
2022/09/04 09:14:22;;;;;;;0.70;0.50;;;40.40;54.00;;;;;;5051456;28;20761;-76
2022/09/04 09:17:03;;;;;;;0.40;0.30;;;40.40;51.50;;;;;;5051407;28;20880;-76
2022/09/04 09:19:45;;;;;;;0.40;0.30;;;40.60;52.20;;;;;;5051072;28;21011;-78
2022/09/04 09:22:36;;;;;;;0.40;0.30;;;41.20;51.30;;;;;;5051296;28;20425;-79
2022/09/04 09:25:15;;;;;;;0.40;0.30;;;41.30;50.90;;;;;;5050671;28;20532;-78
2022/09/04 09:28:33;;;;;;;0.40;0.30;;;40.30;51.00;;;;;;5051384;28;20425;-79
2022/09/04 09:31:28;;;;;;;0.93;0.40;;;40.70;51.50;;;;;;5050453;28;20484;-77
2022/09/04 09:34:27;;;;;;;0.40;0.30;;;40.30;51.10;;;;;;5051223;28;20520;-76
2022/09/04 09:37:48;;;;;;;0.50;0.37;;;39.90;51.90;;;;;;5051207;28;20436;-73
2022/09/04 09:40:43;;;;;;;0.40;0.30;;;39.00;52.40;;;;;;5050957;28;20615;-77
2022/09/04 09:43:40;;;;;;;0.40;0.30;;;39.00;52.70;;;;;;5051070;28;20429;-77
2022/09/04 09:46:49;;;;;;;0.87;0.50;;;38.00;53.40;;;;;;5051024;28;20476;-78
2022/09/04 09:49:52;;;;;;;0.50;0.40;;;37.40;55.10;;;;;;5029991;28;20495;-78
2022/09/04 09:52:39;;;;;;;0.40;0.30;;;38.30;53.80;;;;;;5051380;28;20796;-78
2022/09/04 09:55:34;;;;;;;0.40;0.30;;;38.80;53.70;;;;;;5050621;28;20564;-78
2022/09/04 09:58:39;;;;;;;0.40;0.30;;;38.60;53.20;;;;;;5050997;28;20942;-77
2022/09/04 10:01:23;;;;;;;0.40;0.30;;;39.00;53.00;;;;;;4994549;28;20463;-79
2022/09/04 10:04:17;;;;;;;0.40;0.30;;;38.40;52.90;;;;;;5050388;28;20448;-74
2022/09/04 10:07:18;;;;;;;0.40;0.30;;;37.50;54.30;;;;;;5051123;28;20433;-77
2022/09/04 10:10:23;;;;;;;0.40;0.30;;;37.40;53.80;;;;;;5050576;28;20461;-74
2022/09/04 10:13:25;;;;;;;0.40;0.30;;;37.70;53.90;;;;;;5032944;28;20729;-74
2022/09/04 10:16:25;;;;;;;0.40;0.30;;;38.00;53.30;;;;;;5050090;28;20480;-77
2022/09/04 10:19:23;;;;;;;0.50;0.30;;;38.20;53.30;;;;;;5050830;28;20512;-77
2022/09/04 10:22:21;;;;;;;0.40;0.30;;;36.90;54.20;;;;;;5050628;28;20449;-77
2022/09/04 10:25:24;;;;;;;0.40;0.30;;;36.60;55.20;;;;;;5050211;28;20536;-77
2022/09/04 10:28:19;;;;;;;0.50;0.40;;;37.00;54.20;;;;;;5050409;28;20479;-78
2022/09/04 10:31:24;;;;;;;0.40;0.30;;;37.60;54.00;;;;;;5051831;28;20552;-75
2022/09/04 10:34:12;;;;;;;0.50;0.40;;;38.20;53.60;;;;;;5054431;28;20437;-74
2022/09/04 10:36:47;;;;;;;0.50;0.50;;;39.00;52.00;;;;;;5054136;28;20483;-78
2022/09/04 10:42:26;;;;;;;0.43;0.30;;;38.60;52.50;;;;;;5053932;28;20425;-78
2022/09/04 10:45:16;;;;;;;1.07;0.77;;;39.30;51.90;;;;;;5053859;28;20477;-73
2022/09/04 10:48:11;;;;;;;0.40;0.40;;;39.00;51.30;;;;;;5054080;28;20452;-77
2022/09/04 10:51:00;;;;;;;0.40;0.40;;;39.00;51.50;;;;;;5053737;28;20836;-77
2022/09/04 10:53:53;;;;;;;0.40;0.30;;;38.90;52.10;;;;;;5053881;28;20530;-78
2022/09/04 10:56:28;;;;;;;2.23;1.40;;;39.50;50.90;;;;;;5045649;28;21077;-78
2022/09/04 10:59:19;;;;;;;0.40;0.30;;;39.00;50.80;;;;;;5053832;28;20494;-78
2022/09/04 11:02:28;;;;;;;0.60;0.60;;;38.70;51.50;;;;;;5053847;28;20479;-77
2022/09/04 11:05:25;;;;;;;0.40;0.30;;;38.60;51.40;;;;;;5018342;28;20527;-77
2022/09/04 11:08:27;;;;;;;0.40;0.30;;;38.70;51.70;;;;;;5053262;28;20441;-78
2022/09/04 11:11:17;;;;;;;0.40;0.30;;;39.50;51.00;;;;;;5053386;28;20464;-78
2022/09/04 11:14:22;;;;;;;1.47;0.80;;;39.40;50.60;;;;;;5053532;28;20418;-78
2022/09/04 11:17:29;;;;;;;0.40;0.30;;;39.80;50.90;;;;;;5053182;28;20472;-78
2022/09/04 11:20:31;;;;;;;0.40;0.30;;;38.70;50.80;;;;;;5053453;28;20496;-78
2022/09/04 11:24:01;;;;;;;0.40;0.30;;;37.50;52.70;;;;;;5053284;28;20881;-78
2022/09/04 11:27:00;;;;;;;0.40;0.30;;;37.90;52.00;;;;;;4992009;28;20438;-78
2022/09/04 11:29:54;;;;;;;0.40;0.30;;;38.40;51.40;;;;;;4991792;28;20467;-78
2022/09/04 11:32:57;;;;;;;0.40;0.30;;;38.80;50.70;;;;;;4990878;28;20519;-78
2022/09/04 11:35:48;;;;;;;0.40;0.30;;;38.40;51.50;;;;;;4991380;28;20908;-77
2022/09/04 11:38:21;;;;;;;0.40;0.30;;;38.50;50.90;;;;;;4991464;28;20511;-77
2022/09/04 11:41:33;;;;;;;0.40;0.30;;;38.20;52.10;;;;;;4991523;28;20848;-74
2022/09/04 11:44:28;;;;;;;0.50;0.40;;;38.50;51.30;;;;;;4990433;28;20476;-78
2022/09/04 11:47:22;;;;;;;0.40;0.30;;;38.00;51.20;;;;;;4991404;28;20942;-74
2022/09/04 11:50:18;;;;;;;0.60;0.60;;;36.40;52.00;;;;;;4990923;28;20460;-77
2022/09/04 11:53:06;;;;;;;0.50;0.30;;;35.10;54.30;;;;;;4990975;28;20507;-78
2022/09/04 11:56:08;;;;;;;0.50;0.40;;;34.00;56.00;;;;;;4990599;28;20595;-75
2022/09/04 11:59:03;;;;;;;0.50;0.30;;;33.60;57.10;;;;;;5052983;28;20439;-77
2022/09/04 12:01:53;;;;;;;0.50;0.30;;;32.80;58.50;;;;;;5052810;28;20437;-78
2022/09/04 12:04:47;;;;;;;0.60;0.50;;;32.20;59.40;;;;;;5052533;28;20812;-77
2022/09/04 12:07:30;;;;;;;0.50;0.30;;;31.40;60.10;;;;;;5046281;28;20456;-77
2022/09/04 12:10:16;;;;;;;0.50;0.30;;;30.90;61.80;;;;;;5052701;28;20540;-78
2022/09/04 12:13:10;;;;;;;0.50;0.30;;;30.90;63.70;;;;;;5052501;28;20938;-77
2022/09/04 12:15:55;;;;;;;0.70;0.70;;;31.50;62.60;;;;;;5051807;28;20481;-78
2022/09/04 12:18:57;;;;;;;0.60;0.57;;;31.90;59.70;;;;;;5052211;28;20441;-77
2022/09/04 12:22:00;;;;;;;0.50;0.30;;;32.00;59.00;;;;;;5041872;28;20528;-77
2022/09/04 12:24:51;;;;;;;0.50;0.40;;;32.80;58.90;;;;;;5034909;28;20484;-77
2022/09/04 12:27:43;;;;;;;0.50;0.30;;;34.20;57.70;;;;;;5052127;28;20469;-76
2022/09/04 12:30:19;;;;;;;0.50;0.30;;;35.20;56.10;;;;;;5052069;28;20511;-77
2022/09/04 12:33:31;;;;;;;0.50;0.30;;;36.10;55.30;;;;;;5051839;28;20437;-77
2022/09/04 12:36:27;;;;;;;0.50;0.30;;;37.00;54.10;;;;;;5015882;28;20572;-78
2022/09/04 12:39:14;;;;;;;0.70;0.70;;;37.80;52.00;;;;;;5051695;28;20512;-78
2022/09/04 12:41:53;;;;;;;0.40;0.30;;;36.50;52.90;;;;;;5052246;28;20429;-77
2022/09/04 12:44:30;;;;;;;0.40;0.30;;;36.10;54.70;;;;;;5051094;28;20425;-78
2022/09/04 12:47:12;;;;;;;0.50;0.40;;;36.10;53.90;;;;;;5052072;28;20463;-73
2022/09/04 12:50:01;;;;;;;0.50;0.30;;;34.80;55.10;;;;;;5051583;28;20461;-78
2022/09/04 12:52:46;;;;;;;0.50;0.30;;;34.10;56.50;;;;;;5051841;28;20527;-78
2022/09/04 12:55:22;;;;;;;0.40;0.30;;;35.00;56.30;;;;;;5051120;28;20448;-77
2022/09/04 12:57:59;;;;;;;1.23;0.90;;;36.10;54.10;;;;;;5051597;28;20445;-78
2022/09/04 13:00:33;;;;;;;0.40;0.30;;;36.50;52.90;;;;;;5051236;28;20970;-77
2022/09/04 13:03:10;;;;;;;0.83;0.83;;;37.10;52.40;;;;;;5051437;28;20475;-77
2022/09/04 13:06:04;;;;;;;0.43;0.30;;;36.50;52.20;;;;;;5051276;28;20479;-77
2022/09/04 13:08:46;;;;;;;0.50;0.30;;;35.80;53.10;;;;;;5051484;28;20465;-78
2022/09/04 13:11:29;;;;;;;0.50;0.30;;;34.90;54.00;;;;;;5051044;28;20524;-77
2022/09/04 13:14:12;;;;;;;0.50;0.30;;;33.40;55.20;;;;;;5051001;28;20540;-77
2022/09/04 13:16:46;;;;;;;0.50;0.30;;;32.70;56.90;;;;;;5051009;28;20567;-78
2022/09/04 13:19:21;;;;;;;0.50;0.30;;;32.20;58.50;;;;;;5051264;28;20548;-77
2022/09/04 13:22:08;;;;;;;0.50;0.40;;;32.00;58.80;;;;;;5051479;28;20495;-76
2022/09/04 13:24:50;;;;;;;0.50;0.30;;;31.80;59.20;;;;;;5050562;28;20480;-78
2022/09/04 13:27:30;;;;;;;0.50;0.30;;;31.30;59.90;;;;;;5051273;28;20425;-77
2022/09/04 13:30:05;;;;;;;0.50;0.30;;;30.80;61.60;;;;;;5051453;28;20635;-77
2022/09/04 13:32:52;;;;;;;0.50;0.30;;;30.60;63.00;;;;;;5050561;28;20452;-77
2022/09/04 13:35:35;;;;;;;0.50;0.30;;;30.40;63.70;;;;;;5051085;28;20875;-78
2022/09/04 13:38:36;;;;;;;0.50;0.40;;;30.20;64.80;;;;;;5051547;28;20448;-77
2022/09/04 13:41:36;;;;;;;0.50;0.30;;;30.50;64.60;;;;;;5050805;28;20477;-77
2022/09/04 13:44:37;;;;;;;0.87;0.87;;;31.50;63.50;;;;;;5069001;22;20447;-72
2022/09/04 13:47:07;;;;;;;0.50;0.30;;;31.70;62.60;;;;;;5029081;28;20449;-75
2022/09/04 13:49:40;;;;;;;0.50;0.40;;;31.60;60.80;;;;;;5049412;28;20472;-77
2022/09/04 13:52:12;;;;;;;0.90;0.90;;;31.60;61.20;;;;;;5050961;28;21011;-77
2022/09/04 13:54:44;;;;;;;1.57;1.33;;;31.30;60.40;;;;;;5050687;28;20992;-78
2022/09/04 13:57:16;;;;;;;0.50;0.30;;;31.00;60.80;;;;;;5050589;28;20564;-78
2022/09/04 13:59:48;;;;;;;0.50;0.30;;;30.90;61.10;;;;;;5051050;28;20441;-77
2022/09/04 14:02:24;;;;;;;0.60;0.40;;;30.70;61.70;;;;;;5050970;28;20425;-77
2022/09/04 14:04:55;;;;;;;0.50;0.30;;;30.60;63.60;;;;;;5050062;28;20508;-76
2022/09/04 14:07:30;;;;;;;0.50;0.30;;;30.70;63.00;;;;;;5054815;28;20898;-76
2022/09/04 14:13:13;;;;;;;0.50;0.30;;;30.70;62.90;;;;;;5038504;28;20995;-77
2022/09/04 14:16:02;;;;;;;0.50;0.30;;;30.50;62.80;;;;;;5053419;28;20893;-77
2022/09/04 14:18:54;;;;;;;0.50;0.30;;;30.30;63.30;;;;;;5054843;28;20445;-76
2022/09/04 14:21:32;;;;;;;1.23;0.93;;;30.00;64.40;;;;;;5054686;28;20417;-77
2022/09/04 14:24:06;;;;;;;0.50;0.30;;;30.10;64.50;;;;;;5054738;28;20472;-76
2022/09/04 14:26:40;;;;;;;0.50;0.30;;;30.10;64.80;;;;;;5054593;28;20508;-77